sensor_id;sensor_type;location;lat;lon;timestamp;P1;durP1;ratioP1;P2;durP2;ratioP2
15408;SDS011;7803;48.130;13.788;2023-06-04T00:01:21;5.80;;;4.97;;
15408;SDS011;7803;48.130;13.788;2023-06-04T00:04:24;6.32;;;5.38;;
15408;SDS011;7803;48.130;13.788;2023-06-04T00:07:28;6.28;;;5.07;;
15408;SDS011;7803;48.130;13.788;2023-06-04T00:10:30;6.75;;;4.93;;
15408;SDS011;7803;48.130;13.788;2023-06-04T00:13:33;5.60;;;4.93;;
15408;SDS011;7803;48.130;13.788;2023-06-04T00:16:35;6.82;;;5.18;;
15408;SDS011;7803;48.130;13.788;2023-06-04T00:19:37;5.90;;;5.10;;
15408;SDS011;7803;48.130;13.788;2023-06-04T00:22:42;5.43;;;4.80;;
15408;SDS011;7803;48.130;13.788;2023-06-04T00:25:44;6.50;;;5.40;;
15408;SDS011;7803;48.130;13.788;2023-06-04T00:28:46;5.72;;;4.72;;
15408;SDS011;7803;48.130;13.788;2023-06-04T00:31:48;7.82;;;5.60;;
15408;SDS011;7803;48.130;13.788;2023-06-04T00:34:50;6.68;;;5.30;;
15408;SDS011;7803;48.130;13.788;2023-06-04T00:37:54;5.18;;;4.68;;
15408;SDS011;7803;48.130;13.788;2023-06-04T00:40:56;5.97;;;5.30;;
15408;SDS011;7803;48.130;13.788;2023-06-04T00:43:58;5.30;;;4.80;;
15408;SDS011;7803;48.130;13.788;2023-06-04T00:47:01;5.80;;;5.20;;
15408;SDS011;7803;48.130;13.788;2023-06-04T00:50:04;6.85;;;5.72;;
15408;SDS011;7803;48.130;13.788;2023-06-04T00:53:09;5.50;;;4.90;;
15408;SDS011;7803;48.130;13.788;2023-06-04T00:56:12;6.55;;;4.90;;
15408;SDS011;7803;48.130;13.788;2023-06-04T00:59:14;6.25;;;5.20;;
15408;SDS011;7803;48.130;13.788;2023-06-04T01:02:17;5.97;;;5.10;;
15408;SDS011;7803;48.130;13.788;2023-06-04T01:05:26;7.13;;;5.65;;
15408;SDS011;7803;48.130;13.788;2023-06-04T01:08:37;5.90;;;5.30;;
15408;SDS011;7803;48.130;13.788;2023-06-04T01:11:42;5.32;;;4.82;;
15408;SDS011;7803;48.130;13.788;2023-06-04T01:14:44;5.50;;;4.90;;
15408;SDS011;7803;48.130;13.788;2023-06-04T01:17:48;5.47;;;4.97;;
15408;SDS011;7803;48.130;13.788;2023-06-04T01:20:52;6.28;;;5.55;;
15408;SDS011;7803;48.130;13.788;2023-06-04T01:24:00;5.55;;;5.00;;
15408;SDS011;7803;48.130;13.788;2023-06-04T01:27:03;5.95;;;5.10;;
15408;SDS011;7803;48.130;13.788;2023-06-04T01:30:07;6.70;;;5.28;;
15408;SDS011;7803;48.130;13.788;2023-06-04T01:33:11;6.10;;;5.50;;
15408;SDS011;7803;48.130;13.788;2023-06-04T01:36:13;5.72;;;5.13;;
15408;SDS011;7803;48.130;13.788;2023-06-04T01:39:17;5.60;;;5.00;;
15408;SDS011;7803;48.130;13.788;2023-06-04T01:42:19;5.90;;;5.20;;
15408;SDS011;7803;48.130;13.788;2023-06-04T01:45:21;6.15;;;5.22;;
15408;SDS011;7803;48.130;13.788;2023-06-04T01:48:23;5.85;;;5.20;;
15408;SDS011;7803;48.130;13.788;2023-06-04T01:51:25;6.30;;;5.13;;
15408;SDS011;7803;48.130;13.788;2023-06-04T01:54:28;5.85;;;5.25;;
15408;SDS011;7803;48.130;13.788;2023-06-04T01:57:33;6.60;;;5.38;;
15408;SDS011;7803;48.130;13.788;2023-06-04T02:00:35;6.00;;;5.40;;
15408;SDS011;7803;48.130;13.788;2023-06-04T02:03:37;5.75;;;5.15;;
15408;SDS011;7803;48.130;13.788;2023-06-04T02:06:41;6.60;;;5.57;;
15408;SDS011;7803;48.130;13.788;2023-06-04T02:09:44;5.05;;;4.55;;
15408;SDS011;7803;48.130;13.788;2023-06-04T02:12:53;5.68;;;5.18;;
15408;SDS011;7803;48.130;13.788;2023-06-04T02:15:56;5.28;;;4.78;;
15408;SDS011;7803;48.130;13.788;2023-06-04T02:18:58;6.13;;;5.30;;
15408;SDS011;7803;48.130;13.788;2023-06-04T02:22:00;6.13;;;5.20;;
15408;SDS011;7803;48.130;13.788;2023-06-04T02:25:04;5.10;;;4.60;;
15408;SDS011;7803;48.130;13.788;2023-06-04T02:28:09;6.57;;;5.10;;
15408;SDS011;7803;48.130;13.788;2023-06-04T02:31:11;5.25;;;4.75;;
15408;SDS011;7803;48.130;13.788;2023-06-04T02:34:13;5.93;;;4.78;;
15408;SDS011;7803;48.130;13.788;2023-06-04T02:37:15;6.13;;;4.55;;
15408;SDS011;7803;48.130;13.788;2023-06-04T02:40:19;5.32;;;4.82;;
15408;SDS011;7803;48.130;13.788;2023-06-04T02:43:21;5.75;;;4.55;;
15408;SDS011;7803;48.130;13.788;2023-06-04T02:46:23;6.35;;;5.38;;
15408;SDS011;7803;48.130;13.788;2023-06-04T02:49:25;5.32;;;4.82;;
15408;SDS011;7803;48.130;13.788;2023-06-04T02:52:27;6.15;;;4.88;;
15408;SDS011;7803;48.130;13.788;2023-06-04T02:55:30;6.07;;;5.15;;
15408;SDS011;7803;48.130;13.788;2023-06-04T02:58:32;6.45;;;4.95;;
15408;SDS011;7803;48.130;13.788;2023-06-04T03:01:39;5.10;;;4.60;;
15408;SDS011;7803;48.130;13.788;2023-06-04T03:04:41;4.45;;;4.05;;
15408;SDS011;7803;48.130;13.788;2023-06-04T03:07:44;6.30;;;4.80;;
15408;SDS011;7803;48.130;13.788;2023-06-04T03:10:48;4.75;;;4.25;;
15408;SDS011;7803;48.130;13.788;2023-06-04T03:13:52;5.05;;;4.55;;
15408;SDS011;7803;48.130;13.788;2023-06-04T03:16:54;6.57;;;5.30;;
15408;SDS011;7803;48.130;13.788;2023-06-04T03:19:56;5.72;;;4.43;;
15408;SDS011;7803;48.130;13.788;2023-06-04T03:22:58;5.00;;;4.50;;
15408;SDS011;7803;48.130;13.788;2023-06-04T03:26:02;5.10;;;4.45;;
15408;SDS011;7803;48.130;13.788;2023-06-04T03:29:04;5.72;;;4.20;;
15408;SDS011;7803;48.130;13.788;2023-06-04T03:32:07;5.00;;;4.50;;
15408;SDS011;7803;48.130;13.788;2023-06-04T03:35:09;4.70;;;4.20;;
15408;SDS011;7803;48.130;13.788;2023-06-04T03:38:11;4.53;;;4.13;;
15408;SDS011;7803;48.130;13.788;2023-06-04T03:41:14;5.63;;;4.40;;
15408;SDS011;7803;48.130;13.788;2023-06-04T03:44:16;5.18;;;4.68;;
15408;SDS011;7803;48.130;13.788;2023-06-04T03:47:19;5.28;;;4.50;;
15408;SDS011;7803;48.130;13.788;2023-06-04T03:50:21;6.63;;;5.63;;
15408;SDS011;7803;48.130;13.788;2023-06-04T03:53:23;5.10;;;4.60;;
15408;SDS011;7803;48.130;13.788;2023-06-04T03:56:26;5.28;;;4.78;;
15408;SDS011;7803;48.130;13.788;2023-06-04T03:59:28;5.03;;;4.35;;
15408;SDS011;7803;48.130;13.788;2023-06-04T04:02:30;5.18;;;4.68;;
15408;SDS011;7803;48.130;13.788;2023-06-04T04:05:33;5.28;;;4.80;;
15408;SDS011;7803;48.130;13.788;2023-06-04T04:08:35;5.40;;;4.88;;
15408;SDS011;7803;48.130;13.788;2023-06-04T04:11:43;6.50;;;5.43;;
15408;SDS011;7803;48.130;13.788;2023-06-04T04:14:45;5.50;;;4.68;;
15408;SDS011;7803;48.130;13.788;2023-06-04T04:17:47;5.30;;;4.80;;
15408;SDS011;7803;48.130;13.788;2023-06-04T04:20:49;5.40;;;4.75;;
15408;SDS011;7803;48.130;13.788;2023-06-04T04:23:51;5.47;;;4.97;;
15408;SDS011;7803;48.130;13.788;2023-06-04T04:26:55;5.80;;;5.20;;
15408;SDS011;7803;48.130;13.788;2023-06-04T04:29:58;5.43;;;4.85;;
15408;SDS011;7803;48.130;13.788;2023-06-04T04:33:01;6.80;;;5.00;;
15408;SDS011;7803;48.130;13.788;2023-06-04T04:36:05;6.60;;;5.20;;
15408;SDS011;7803;48.130;13.788;2023-06-04T04:39:08;5.22;;;4.72;;
15408;SDS011;7803;48.130;13.788;2023-06-04T04:42:12;6.22;;;5.00;;
15408;SDS011;7803;48.130;13.788;2023-06-04T04:45:14;5.70;;;5.10;;
15408;SDS011;7803;48.130;13.788;2023-06-04T04:48:17;5.45;;;4.72;;
15408;SDS011;7803;48.130;13.788;2023-06-04T04:51:19;5.35;;;4.85;;
15408;SDS011;7803;48.130;13.788;2023-06-04T04:54:21;4.75;;;4.32;;
15408;SDS011;7803;48.130;13.788;2023-06-04T04:57:24;5.00;;;4.50;;
15408;SDS011;7803;48.130;13.788;2023-06-04T05:00:26;6.90;;;4.93;;
15408;SDS011;7803;48.130;13.788;2023-06-04T05:03:28;5.70;;;4.78;;
15408;SDS011;7803;48.130;13.788;2023-06-04T05:06:30;5.80;;;5.20;;
15408;SDS011;7803;48.130;13.788;2023-06-04T05:09:32;5.95;;;5.35;;
15408;SDS011;7803;48.130;13.788;2023-06-04T05:12:36;5.88;;;5.00;;
15408;SDS011;7803;48.130;13.788;2023-06-04T05:15:38;6.10;;;5.20;;
15408;SDS011;7803;48.130;13.788;2023-06-04T05:18:42;6.88;;;5.60;;
15408;SDS011;7803;48.130;13.788;2023-06-04T05:21:44;6.03;;;5.10;;
15408;SDS011;7803;48.130;13.788;2023-06-04T05:24:48;5.28;;;4.78;;
15408;SDS011;7803;48.130;13.788;2023-06-04T05:27:53;5.47;;;4.95;;
15408;SDS011;7803;48.130;13.788;2023-06-04T05:30:55;5.60;;;5.10;;
15408;SDS011;7803;48.130;13.788;2023-06-04T05:33:59;5.10;;;4.60;;
15408;SDS011;7803;48.130;13.788;2023-06-04T05:37:01;5.15;;;4.65;;
15408;SDS011;7803;48.130;13.788;2023-06-04T05:40:08;5.43;;;4.93;;
15408;SDS011;7803;48.130;13.788;2023-06-04T05:43:12;5.40;;;4.82;;
15408;SDS011;7803;48.130;13.788;2023-06-04T05:46:14;6.93;;;5.68;;
15408;SDS011;7803;48.130;13.788;2023-06-04T05:49:16;5.90;;;5.30;;
15408;SDS011;7803;48.130;13.788;2023-06-04T05:52:19;6.28;;;5.68;;
15408;SDS011;7803;48.130;13.788;2023-06-04T05:55:21;5.80;;;5.20;;
15408;SDS011;7803;48.130;13.788;2023-06-04T05:58:25;6.68;;;5.63;;
15408;SDS011;7803;48.130;13.788;2023-06-04T06:01:27;5.97;;;5.40;;
15408;SDS011;7803;48.130;13.788;2023-06-04T06:04:29;5.72;;;5.22;;
15408;SDS011;7803;48.130;13.788;2023-06-04T06:07:31;5.55;;;4.95;;
15408;SDS011;7803;48.130;13.788;2023-06-04T06:10:33;5.88;;;5.10;;
15408;SDS011;7803;48.130;13.788;2023-06-04T06:13:37;5.88;;;5.28;;
15408;SDS011;7803;48.130;13.788;2023-06-04T06:16:39;6.57;;;5.65;;
15408;SDS011;7803;48.130;13.788;2023-06-04T06:19:41;6.63;;;5.03;;
15408;SDS011;7803;48.130;13.788;2023-06-04T06:22:43;6.68;;;5.20;;
15408;SDS011;7803;48.130;13.788;2023-06-04T06:25:45;5.93;;;4.65;;
15408;SDS011;7803;48.130;13.788;2023-06-04T06:28:50;6.47;;;4.82;;
15408;SDS011;7803;48.130;13.788;2023-06-04T06:31:52;5.53;;;4.35;;
15408;SDS011;7803;48.130;13.788;2023-06-04T06:34:54;4.55;;;4.10;;
15408;SDS011;7803;48.130;13.788;2023-06-04T06:37:56;4.60;;;4.07;;
15408;SDS011;7803;48.130;13.788;2023-06-04T06:40:58;4.32;;;3.90;;
15408;SDS011;7803;48.130;13.788;2023-06-04T06:44:01;7.57;;;4.53;;
15408;SDS011;7803;48.130;13.788;2023-06-04T06:47:03;6.35;;;4.50;;
15408;SDS011;7803;48.130;13.788;2023-06-04T06:50:06;4.35;;;3.95;;
15408;SDS011;7803;48.130;13.788;2023-06-04T06:53:09;5.43;;;4.07;;
15408;SDS011;7803;48.130;13.788;2023-06-04T06:56:11;4.43;;;3.60;;
15408;SDS011;7803;48.130;13.788;2023-06-04T06:59:17;4.68;;;3.70;;
15408;SDS011;7803;48.130;13.788;2023-06-04T07:02:19;4.10;;;3.75;;
15408;SDS011;7803;48.130;13.788;2023-06-04T07:05:21;6.22;;;3.85;;
15408;SDS011;7803;48.130;13.788;2023-06-04T07:08:23;6.05;;;3.90;;
15408;SDS011;7803;48.130;13.788;2023-06-04T07:11:25;6.30;;;3.92;;
15408;SDS011;7803;48.130;13.788;2023-06-04T07:14:29;4.10;;;3.70;;
15408;SDS011;7803;48.130;13.788;2023-06-04T07:17:31;4.13;;;3.72;;
15408;SDS011;7803;48.130;13.788;2023-06-04T07:20:33;3.83;;;3.50;;
15408;SDS011;7803;48.130;13.788;2023-06-04T07:23:35;5.00;;;3.50;;
15408;SDS011;7803;48.130;13.788;2023-06-04T07:26:37;4.03;;;3.30;;
15408;SDS011;7803;48.130;13.788;2023-06-04T07:29:42;3.70;;;3.30;;
15408;SDS011;7803;48.130;13.788;2023-06-04T07:32:45;4.00;;;3.17;;
15408;SDS011;7803;48.130;13.788;2023-06-04T07:35:48;5.05;;;3.58;;
15408;SDS011;7803;48.130;13.788;2023-06-04T07:38:50;4.43;;;3.53;;
15408;SDS011;7803;48.130;13.788;2023-06-04T07:41:52;3.65;;;3.17;;
15408;SDS011;7803;48.130;13.788;2023-06-04T07:44:56;5.85;;;3.28;;
15408;SDS011;7803;48.130;13.788;2023-06-04T07:47:58;4.00;;;3.17;;
15408;SDS011;7803;48.130;13.788;2023-06-04T07:51:00;3.88;;;3.35;;
15408;SDS011;7803;48.130;13.788;2023-06-04T07:54:04;3.90;;;3.20;;
15408;SDS011;7803;48.130;13.788;2023-06-04T07:57:06;4.97;;;3.40;;
15408;SDS011;7803;48.130;13.788;2023-06-04T08:00:11;5.25;;;3.40;;
15408;SDS011;7803;48.130;13.788;2023-06-04T08:03:14;4.22;;;3.40;;
15408;SDS011;7803;48.130;13.788;2023-06-04T08:06:16;3.95;;;3.10;;
15408;SDS011;7803;48.130;13.788;2023-06-04T08:09:18;4.38;;;3.25;;
15408;SDS011;7803;48.130;13.788;2023-06-04T08:12:20;4.25;;;3.28;;
15408;SDS011;7803;48.130;13.788;2023-06-04T08:15:24;3.67;;;3.13;;
15408;SDS011;7803;48.130;13.788;2023-06-04T08:18:26;5.25;;;3.08;;
15408;SDS011;7803;48.130;13.788;2023-06-04T08:21:28;3.88;;;3.03;;
15408;SDS011;7803;48.130;13.788;2023-06-04T08:24:30;4.30;;;3.35;;
15408;SDS011;7803;48.130;13.788;2023-06-04T08:27:32;5.18;;;3.30;;
15408;SDS011;7803;48.130;13.788;2023-06-04T08:30:36;4.75;;;3.33;;
15408;SDS011;7803;48.130;13.788;2023-06-04T08:33:38;4.80;;;3.05;;
15408;SDS011;7803;48.130;13.788;2023-06-04T08:36:40;3.90;;;3.05;;
15408;SDS011;7803;48.130;13.788;2023-06-04T08:39:42;3.38;;;3.00;;
15408;SDS011;7803;48.130;13.788;2023-06-04T08:42:45;4.22;;;2.92;;
15408;SDS011;7803;48.130;13.788;2023-06-04T08:45:49;3.95;;;3.10;;
15408;SDS011;7803;48.130;13.788;2023-06-04T08:48:52;4.72;;;3.13;;
15408;SDS011;7803;48.130;13.788;2023-06-04T08:51:57;5.25;;;3.17;;
15408;SDS011;7803;48.130;13.788;2023-06-04T08:54:59;3.38;;;2.70;;
15408;SDS011;7803;48.130;13.788;2023-06-04T08:58:01;3.90;;;2.90;;
15408;SDS011;7803;48.130;13.788;2023-06-04T09:01:05;5.35;;;3.55;;
15408;SDS011;7803;48.130;13.788;2023-06-04T09:04:08;5.43;;;3.72;;
15408;SDS011;7803;48.130;13.788;2023-06-04T09:07:10;5.80;;;4.03;;
15408;SDS011;7803;48.130;13.788;2023-06-04T09:10:15;4.30;;;3.80;;
15408;SDS011;7803;48.130;13.788;2023-06-04T09:13:21;4.43;;;3.60;;
15408;SDS011;7803;48.130;13.788;2023-06-04T09:16:26;3.92;;;3.50;;
15408;SDS011;7803;48.130;13.788;2023-06-04T09:19:35;4.78;;;3.78;;
15408;SDS011;7803;48.130;13.788;2023-06-04T09:22:37;4.20;;;3.80;;
15408;SDS011;7803;48.130;13.788;2023-06-04T09:25:41;4.53;;;3.90;;
15408;SDS011;7803;48.130;13.788;2023-06-04T09:28:45;5.00;;;4.30;;
15408;SDS011;7803;48.130;13.788;2023-06-04T09:31:56;4.93;;;4.10;;
15408;SDS011;7803;48.130;13.788;2023-06-04T09:35:07;4.57;;;4.10;;
15408;SDS011;7803;48.130;13.788;2023-06-04T09:38:11;4.63;;;3.97;;
15408;SDS011;7803;48.130;13.788;2023-06-04T09:41:13;9.13;;;7.45;;
15408;SDS011;7803;48.130;13.788;2023-06-04T09:44:17;5.97;;;4.40;;
15408;SDS011;7803;48.130;13.788;2023-06-04T09:47:20;6.50;;;4.43;;
15408;SDS011;7803;48.130;13.788;2023-06-04T09:50:25;5.53;;;4.63;;
15408;SDS011;7803;48.130;13.788;2023-06-04T09:53:27;5.25;;;4.38;;
15408;SDS011;7803;48.130;13.788;2023-06-04T09:56:29;7.15;;;4.15;;
15408;SDS011;7803;48.130;13.788;2023-06-04T09:59:40;5.10;;;4.30;;
15408;SDS011;7803;48.130;13.788;2023-06-04T10:02:45;5.05;;;4.32;;
15408;SDS011;7803;48.130;13.788;2023-06-04T10:05:48;5.18;;;4.00;;
15408;SDS011;7803;48.130;13.788;2023-06-04T10:08:51;8.27;;;4.40;;
15408;SDS011;7803;48.130;13.788;2023-06-04T10:11:58;6.25;;;4.70;;
15408;SDS011;7803;48.130;13.788;2023-06-04T10:15:02;7.97;;;4.70;;
15408;SDS011;7803;48.130;13.788;2023-06-04T10:18:11;7.32;;;5.13;;
15408;SDS011;7803;48.130;13.788;2023-06-04T10:21:15;8.15;;;5.80;;
15408;SDS011;7803;48.130;13.788;2023-06-04T10:24:19;8.13;;;5.45;;
15408;SDS011;7803;48.130;13.788;2023-06-04T10:27:22;9.30;;;6.03;;
15408;SDS011;7803;48.130;13.788;2023-06-04T10:30:25;7.97;;;5.95;;
15408;SDS011;7803;48.130;13.788;2023-06-04T10:33:28;7.57;;;5.75;;
15408;SDS011;7803;48.130;13.788;2023-06-04T10:36:31;6.32;;;5.50;;
15408;SDS011;7803;48.130;13.788;2023-06-04T10:39:49;6.57;;;5.60;;
15408;SDS011;7803;48.130;13.788;2023-06-04T10:42:52;7.30;;;6.00;;
15408;SDS011;7803;48.130;13.788;2023-06-04T10:45:54;7.15;;;5.95;;
15408;SDS011;7803;48.130;13.788;2023-06-04T10:48:57;6.70;;;5.78;;
15408;SDS011;7803;48.130;13.788;2023-06-04T10:52:09;8.80;;;6.32;;
15408;SDS011;7803;48.130;13.788;2023-06-04T10:55:11;7.65;;;5.95;;
15408;SDS011;7803;48.130;13.788;2023-06-04T10:58:13;6.60;;;5.88;;
15408;SDS011;7803;48.130;13.788;2023-06-04T11:01:22;7.57;;;6.00;;
15408;SDS011;7803;48.130;13.788;2023-06-04T11:04:26;8.43;;;5.90;;
15408;SDS011;7803;48.130;13.788;2023-06-04T11:07:28;6.60;;;5.93;;
15408;SDS011;7803;48.130;13.788;2023-06-04T11:10:31;8.38;;;6.20;;
15408;SDS011;7803;48.130;13.788;2023-06-04T11:13:34;11.27;;;6.60;;
15408;SDS011;7803;48.130;13.788;2023-06-04T11:16:36;11.30;;;6.35;;
15408;SDS011;7803;48.130;13.788;2023-06-04T11:19:40;8.48;;;6.43;;
15408;SDS011;7803;48.130;13.788;2023-06-04T11:22:42;7.78;;;5.90;;
15408;SDS011;7803;48.130;13.788;2023-06-04T11:25:44;9.05;;;6.07;;
15408;SDS011;7803;48.130;13.788;2023-06-04T11:28:48;8.13;;;6.13;;
15408;SDS011;7803;48.130;13.788;2023-06-04T11:31:50;9.50;;;6.57;;
15408;SDS011;7803;48.130;13.788;2023-06-04T11:35:03;7.35;;;5.85;;
15408;SDS011;7803;48.130;13.788;2023-06-04T11:38:06;9.00;;;6.40;;
15408;SDS011;7803;48.130;13.788;2023-06-04T11:41:08;8.82;;;6.50;;
15408;SDS011;7803;48.130;13.788;2023-06-04T11:44:10;8.50;;;6.13;;
15408;SDS011;7803;48.130;13.788;2023-06-04T11:47:13;8.55;;;6.28;;
15408;SDS011;7803;48.130;13.788;2023-06-04T11:50:18;8.43;;;6.40;;
15408;SDS011;7803;48.130;13.788;2023-06-04T11:53:20;9.15;;;6.20;;
15408;SDS011;7803;48.130;13.788;2023-06-04T11:56:23;8.27;;;6.38;;
15408;SDS011;7803;48.130;13.788;2023-06-04T12:03:14;7.90;;;5.90;;
15408;SDS011;7803;48.130;13.788;2023-06-04T12:06:18;10.63;;;6.20;;
15408;SDS011;7803;48.130;13.788;2023-06-04T12:09:21;8.98;;;5.88;;
15408;SDS011;7803;48.130;13.788;2023-06-04T12:12:24;11.15;;;5.97;;
15408;SDS011;7803;48.130;13.788;2023-06-04T12:15:26;8.95;;;5.85;;
15408;SDS011;7803;48.130;13.788;2023-06-04T12:18:28;10.75;;;5.63;;
15408;SDS011;7803;48.130;13.788;2023-06-04T12:21:31;8.98;;;6.35;;
15408;SDS011;7803;48.130;13.788;2023-06-04T12:24:34;7.32;;;5.95;;
15408;SDS011;7803;48.130;13.788;2023-06-04T12:27:47;7.28;;;5.68;;
15408;SDS011;7803;48.130;13.788;2023-06-04T12:30:50;7.28;;;6.00;;
15408;SDS011;7803;48.130;13.788;2023-06-04T12:33:52;7.82;;;5.65;;
15408;SDS011;7803;48.130;13.788;2023-06-04T12:36:55;8.13;;;5.80;;
15408;SDS011;7803;48.130;13.788;2023-06-04T12:39:57;11.70;;;5.93;;
15408;SDS011;7803;48.130;13.788;2023-06-04T12:42:59;6.05;;;5.38;;
15408;SDS011;7803;48.130;13.788;2023-06-04T12:46:02;6.97;;;6.00;;
15408;SDS011;7803;48.130;13.788;2023-06-04T12:49:04;6.80;;;5.70;;
15408;SDS011;7803;48.130;13.788;2023-06-04T12:52:08;9.93;;;5.60;;
15408;SDS011;7803;48.130;13.788;2023-06-04T12:55:10;7.75;;;6.00;;
15408;SDS011;7803;48.130;13.788;2023-06-04T12:58:12;6.25;;;5.40;;
15408;SDS011;7803;48.130;13.788;2023-06-04T13:01:14;6.50;;;5.55;;
15408;SDS011;7803;48.130;13.788;2023-06-04T13:04:16;5.93;;;5.30;;
15408;SDS011;7803;48.130;13.788;2023-06-04T13:07:19;7.20;;;5.40;;
15408;SDS011;7803;48.130;13.788;2023-06-04T13:10:22;7.07;;;5.63;;
15408;SDS011;7803;48.130;13.788;2023-06-04T13:13:23;7.53;;;5.80;;
15408;SDS011;7803;48.130;13.788;2023-06-04T13:16:26;7.50;;;5.38;;
15408;SDS011;7803;48.130;13.788;2023-06-04T13:19:28;7.88;;;5.57;;
15408;SDS011;7803;48.130;13.788;2023-06-04T13:22:31;7.07;;;5.55;;
15408;SDS011;7803;48.130;13.788;2023-06-04T13:25:33;6.78;;;5.53;;
15408;SDS011;7803;48.130;13.788;2023-06-04T13:28:35;6.75;;;5.07;;
15408;SDS011;7803;48.130;13.788;2023-06-04T13:31:38;6.78;;;5.55;;
15408;SDS011;7803;48.130;13.788;2023-06-04T13:34:40;6.68;;;5.60;;
15408;SDS011;7803;48.130;13.788;2023-06-04T13:37:44;6.10;;;5.22;;
15408;SDS011;7803;48.130;13.788;2023-06-04T13:40:46;6.00;;;5.15;;
15408;SDS011;7803;48.130;13.788;2023-06-04T13:43:48;5.47;;;4.97;;
15408;SDS011;7803;48.130;13.788;2023-06-04T13:46:50;5.93;;;5.40;;
15408;SDS011;7803;48.130;13.788;2023-06-04T13:49:52;5.80;;;5.20;;
15408;SDS011;7803;48.130;13.788;2023-06-04T13:52:55;5.60;;;5.10;;
15408;SDS011;7803;48.130;13.788;2023-06-04T13:55:57;6.32;;;5.40;;
15408;SDS011;7803;48.130;13.788;2023-06-04T13:58:59;6.38;;;5.10;;
15408;SDS011;7803;48.130;13.788;2023-06-04T14:02:01;6.88;;;5.95;;
15408;SDS011;7803;48.130;13.788;2023-06-04T14:05:04;5.90;;;4.90;;
15408;SDS011;7803;48.130;13.788;2023-06-04T14:08:08;6.75;;;5.57;;
15408;SDS011;7803;48.130;13.788;2023-06-04T14:11:12;7.00;;;5.07;;
15408;SDS011;7803;48.130;13.788;2023-06-04T14:14:14;5.95;;;5.05;;
15408;SDS011;7803;48.130;13.788;2023-06-04T14:17:17;6.43;;;4.93;;
15408;SDS011;7803;48.130;13.788;2023-06-04T14:20:19;6.32;;;5.70;;
15408;SDS011;7803;48.130;13.788;2023-06-04T14:23:22;5.70;;;5.10;;
15408;SDS011;7803;48.130;13.788;2023-06-04T14:26:24;5.65;;;5.07;;
15408;SDS011;7803;48.130;13.788;2023-06-04T14:29:26;6.00;;;5.25;;
15408;SDS011;7803;48.130;13.788;2023-06-04T14:32:28;5.72;;;5.10;;
15408;SDS011;7803;48.130;13.788;2023-06-04T14:35:30;5.88;;;4.97;;
15408;SDS011;7803;48.130;13.788;2023-06-04T14:38:34;5.45;;;4.90;;
15408;SDS011;7803;48.130;13.788;2023-06-04T14:41:37;5.43;;;4.88;;
15408;SDS011;7803;48.130;13.788;2023-06-04T14:44:39;5.85;;;5.10;;
15408;SDS011;7803;48.130;13.788;2023-06-04T14:47:41;6.05;;;5.05;;
15408;SDS011;7803;48.130;13.788;2023-06-04T14:50:43;6.15;;;5.07;;
15408;SDS011;7803;48.130;13.788;2023-06-04T14:53:48;6.47;;;4.90;;
15408;SDS011;7803;48.130;13.788;2023-06-04T14:56:50;6.38;;;5.28;;
15408;SDS011;7803;48.130;13.788;2023-06-04T14:59:52;6.05;;;4.72;;
15408;SDS011;7803;48.130;13.788;2023-06-04T15:02:54;6.07;;;4.90;;
15408;SDS011;7803;48.130;13.788;2023-06-04T15:05:56;5.53;;;5.03;;
15408;SDS011;7803;48.130;13.788;2023-06-04T15:08:59;6.68;;;4.90;;
15408;SDS011;7803;48.130;13.788;2023-06-04T15:12:01;5.85;;;5.20;;
15408;SDS011;7803;48.130;13.788;2023-06-04T15:15:04;6.50;;;5.30;;
15408;SDS011;7803;48.130;13.788;2023-06-04T15:18:07;5.43;;;4.93;;
15408;SDS011;7803;48.130;13.788;2023-06-04T15:21:09;5.20;;;4.70;;
15408;SDS011;7803;48.130;13.788;2023-06-04T15:24:12;5.40;;;4.70;;
15408;SDS011;7803;48.130;13.788;2023-06-04T15:27:14;5.55;;;5.00;;
15408;SDS011;7803;48.130;13.788;2023-06-04T15:30:16;5.40;;;4.90;;
15408;SDS011;7803;48.130;13.788;2023-06-04T15:33:18;5.75;;;4.65;;
15408;SDS011;7803;48.130;13.788;2023-06-04T15:36:20;6.47;;;5.30;;
15408;SDS011;7803;48.130;13.788;2023-06-04T15:39:23;5.00;;;4.38;;
15408;SDS011;7803;48.130;13.788;2023-06-04T15:42:25;4.88;;;4.38;;
15408;SDS011;7803;48.130;13.788;2023-06-04T15:45:27;5.00;;;4.50;;
15408;SDS011;7803;48.130;13.788;2023-06-04T15:48:29;4.97;;;4.57;;
15408;SDS011;7803;48.130;13.788;2023-06-04T15:51:32;5.95;;;4.70;;
15408;SDS011;7803;48.130;13.788;2023-06-04T15:54:35;5.28;;;4.78;;
15408;SDS011;7803;48.130;13.788;2023-06-04T15:57:37;5.40;;;4.90;;
15408;SDS011;7803;48.130;13.788;2023-06-04T16:00:39;5.28;;;4.78;;
15408;SDS011;7803;48.130;13.788;2023-06-04T16:03:41;6.15;;;4.95;;
15408;SDS011;7803;48.130;13.788;2023-06-04T16:06:43;5.55;;;4.88;;
15408;SDS011;7803;48.130;13.788;2023-06-04T16:09:46;6.32;;;4.80;;
15408;SDS011;7803;48.130;13.788;2023-06-04T16:12:48;5.53;;;4.72;;
15408;SDS011;7803;48.130;13.788;2023-06-04T16:15:50;5.20;;;4.70;;
15408;SDS011;7803;48.130;13.788;2023-06-04T16:18:52;5.03;;;4.53;;
15408;SDS011;7803;48.130;13.788;2023-06-04T16:21:55;7.13;;;5.20;;
15408;SDS011;7803;48.130;13.788;2023-06-04T16:24:58;5.25;;;4.75;;
15408;SDS011;7803;48.130;13.788;2023-06-04T16:28:00;5.38;;;4.85;;
15408;SDS011;7803;48.130;13.788;2023-06-04T16:31:02;5.35;;;4.57;;
15408;SDS011;7803;48.130;13.788;2023-06-04T16:34:04;5.35;;;4.47;;
15408;SDS011;7803;48.130;13.788;2023-06-04T16:37:06;5.43;;;4.60;;
15408;SDS011;7803;48.130;13.788;2023-06-04T16:40:10;5.05;;;4.55;;
15408;SDS011;7803;48.130;13.788;2023-06-04T16:43:12;4.90;;;4.50;;
15408;SDS011;7803;48.130;13.788;2023-06-04T16:46:15;5.95;;;4.68;;
15408;SDS011;7803;48.130;13.788;2023-06-04T16:49:17;5.75;;;4.75;;
15408;SDS011;7803;48.130;13.788;2023-06-04T16:52:19;5.20;;;4.70;;
15408;SDS011;7803;48.130;13.788;2023-06-04T16:55:29;7.10;;;5.07;;
15408;SDS011;7803;48.130;13.788;2023-06-04T16:58:32;5.78;;;4.90;;
15408;SDS011;7803;48.130;13.788;2023-06-04T17:01:36;5.40;;;4.55;;
15408;SDS011;7803;48.130;13.788;2023-06-04T17:04:40;6.85;;;4.63;;
15408;SDS011;7803;48.130;13.788;2023-06-04T17:07:42;5.05;;;4.53;;
15408;SDS011;7803;48.130;13.788;2023-06-04T17:10:45;5.20;;;4.55;;
15408;SDS011;7803;48.130;13.788;2023-06-04T17:13:47;5.35;;;4.68;;
15408;SDS011;7803;48.130;13.788;2023-06-04T17:16:49;31.88;;;12.90;;
15408;SDS011;7803;48.130;13.788;2023-06-04T17:19:51;697.83;;;189.32;;
15408;SDS011;7803;48.130;13.788;2023-06-04T17:22:53;369.10;;;261.10;;
15408;SDS011;7803;48.130;13.788;2023-06-04T17:25:57;222.18;;;182.13;;
15408;SDS011;7803;48.130;13.788;2023-06-04T17:28:59;87.78;;;59.90;;
15408;SDS011;7803;48.130;13.788;2023-06-04T17:32:01;63.75;;;37.38;;
15408;SDS011;7803;48.130;13.788;2023-06-04T17:35:04;39.20;;;26.92;;
15408;SDS011;7803;48.130;13.788;2023-06-04T17:38:09;28.33;;;16.15;;
15408;SDS011;7803;48.130;13.788;2023-06-04T17:41:12;17.77;;;12.18;;
15408;SDS011;7803;48.130;13.788;2023-06-04T17:44:15;15.68;;;9.23;;
15408;SDS011;7803;48.130;13.788;2023-06-04T17:47:17;13.98;;;8.35;;
15408;SDS011;7803;48.130;13.788;2023-06-04T17:50:19;12.25;;;7.72;;
15408;SDS011;7803;48.130;13.788;2023-06-04T17:53:21;11.27;;;7.55;;
15408;SDS011;7803;48.130;13.788;2023-06-04T17:56:25;8.23;;;6.72;;
15408;SDS011;7803;48.130;13.788;2023-06-04T17:59:27;9.20;;;6.45;;
15408;SDS011;7803;48.130;13.788;2023-06-04T18:02:29;8.63;;;6.82;;
15408;SDS011;7803;48.130;13.788;2023-06-04T18:05:31;8.18;;;6.13;;
15408;SDS011;7803;48.130;13.788;2023-06-04T18:08:32;7.60;;;5.97;;
15408;SDS011;7803;48.130;13.788;2023-06-04T18:11:36;7.32;;;5.85;;
15408;SDS011;7803;48.130;13.788;2023-06-04T18:14:38;6.20;;;5.53;;
15408;SDS011;7803;48.130;13.788;2023-06-04T18:17:40;5.88;;;5.28;;
15408;SDS011;7803;48.130;13.788;2023-06-04T18:20:42;6.38;;;5.53;;
15408;SDS011;7803;48.130;13.788;2023-06-04T18:23:44;5.82;;;5.25;;